Indian Creek, Louisiana
Current Conditions -  °F | °C
As of 1:53 PM on Friday 28 Nov 2014 (Local Time) from KAEX Reporting Station
Clear Clear  
Wind Chill: 62°   Ceiling: Unl
Heat Index: 62°   Visibility: 10mi
Dew Point: 38°   Wind: 9mph
Humidity: 41%   Direction: 120°ESE
Pressure: 30.24"   Gusts: NA
Location:  31.1516°N, 92.535°W
Report Text: KAEX 281953Z 12008KT 10SM CLR 17/03 A3024 RMK AO2 SLP246 T01670033
Loading
Personal Weather Stations






























Interactive Weather Map New forecast layout! Learn more

10-Day Weather Forecast

Advertisements
Track Severe Weather on mobile